createdAt,value
2023-04-15T00:02:26.285Z,95189.03
2023-04-15T00:06:39.089Z,95180.97
2023-04-15T00:10:51.755Z,95178.22
2023-04-15T00:15:04.908Z,95177.63
2023-04-15T00:19:17.344Z,95188.25
2023-04-15T00:23:39.885Z,95176.09
2023-04-15T00:27:52.331Z,95166.66
2023-04-15T00:32:04.743Z,95163.28
2023-04-15T00:36:27.138Z,95157.22
2023-04-15T00:40:39.788Z,95153.72
2023-04-15T00:44:52.541Z,95154.78
2023-04-15T00:49:07.114Z,95138.94
2023-04-15T00:53:29.556Z,95152.19
2023-04-15T00:57:42.389Z,95161.50
2023-04-15T01:01:55.413Z,95153.72
2023-04-15T01:06:09.212Z,95145.94
2023-04-15T01:10:22.208Z,95155.53
2023-04-15T01:14:35.133Z,95152.50
2023-04-15T01:18:47.771Z,95158.59
2023-04-15T01:23:00.238Z,95152.03
2023-04-15T01:27:12.785Z,95148.38
2023-04-15T01:31:25.301Z,95133.47
2023-04-15T01:35:38.006Z,95141.09
2023-04-15T01:39:50.701Z,95147.16
2023-04-15T01:44:03.223Z,95143.81
2023-04-15T01:48:15.688Z,95151.13
2023-04-15T01:52:28.503Z,95152.63
2023-04-15T01:56:40.989Z,95161.19
2023-04-15T02:00:54.553Z,95152.97
2023-04-15T02:05:07.825Z,95150.97
2023-04-15T02:09:20.416Z,95156.44
2023-04-15T02:13:32.857Z,95153.28
2023-04-15T02:17:46.779Z,95155.06
2023-04-15T02:21:59.341Z,95154.78
2023-04-15T02:26:11.781Z,95159.06
2023-04-15T02:30:24.794Z,95145.97
2023-04-15T02:34:38.473Z,95151.59
2023-04-15T02:38:50.909Z,95149.16
2023-04-15T02:43:03.385Z,95151.91
2023-04-15T02:47:16.798Z,95149.00
2023-04-15T02:51:33.020Z,95153.41
2023-04-15T02:55:45.507Z,95152.97
2023-04-15T02:59:58.066Z,95163.75
2023-04-15T03:04:10.644Z,95172.16
2023-04-15T03:08:23.126Z,95168.34
2023-04-15T03:12:35.604Z,95158.44
2023-04-15T03:16:56.905Z,95150.22
2023-04-15T03:21:09.328Z,95172.28
2023-04-15T03:25:22.573Z,95169.41
2023-04-15T03:29:45.013Z,95171.22
2023-04-15T03:33:57.426Z,95171.38
2023-04-15T03:38:09.868Z,95168.03
2023-04-15T03:42:23.044Z,95170.16
2023-04-15T03:46:35.590Z,95169.25
2023-04-15T03:50:48.060Z,95153.25
2023-04-15T03:55:00.491Z,95160.41
2023-04-15T03:59:12.897Z,95159.16
2023-04-15T04:03:26.562Z,95165.72
2023-04-15T04:07:39.172Z,95163.59
2023-04-15T04:12:02.102Z,95161.00
2023-04-15T04:16:24.710Z,95157.78
2023-04-15T04:20:37.423Z,95158.28
2023-04-15T04:24:49.925Z,95163.59
2023-04-15T04:29:02.525Z,95168.91
2023-04-15T04:33:25.376Z,95165.09
2023-04-15T04:37:37.820Z,95154.75
2023-04-15T04:41:50.982Z,95172.13
2023-04-15T04:46:03.452Z,95165.28
2023-04-15T04:50:15.964Z,95165.44
2023-04-15T04:54:28.547Z,95172.75
2023-04-15T04:58:45.094Z,95167.41
2023-04-15T05:02:57.930Z,95157.38
2023-04-15T05:07:10.507Z,95161.78
2023-04-15T05:11:23.031Z,95157.81
2023-04-15T05:15:37.801Z,95152.63
2023-04-15T05:19:50.294Z,95153.41
2023-04-15T05:24:02.766Z,95151.44
2023-04-15T05:28:25.517Z,95161.31
2023-04-15T05:32:48.147Z,95168.94
2023-04-15T05:37:00.613Z,95164.06
2023-04-15T05:41:13.206Z,95174.13
2023-04-15T05:45:26.073Z,95161.78
2023-04-15T05:49:38.484Z,95166.97
2023-04-15T05:54:00.952Z,95167.41
2023-04-15T05:58:13.447Z,95177.91
2023-04-15T06:02:26.006Z,95168.94
2023-04-15T06:06:39.129Z,95173.50
2023-04-15T06:10:51.813Z,95168.78
2023-04-15T06:15:04.769Z,95177.63
2023-04-15T06:19:17.193Z,95173.59
2023-04-15T06:23:29.682Z,95185.66
2023-04-15T06:27:43.487Z,95174.38
2023-04-15T06:31:57.603Z,95167.66
2023-04-15T06:36:10.208Z,95180.44
2023-04-15T06:40:22.957Z,95184.97
2023-04-15T06:44:35.974Z,95176.53
2023-04-15T06:48:48.396Z,95179.34
2023-04-15T06:53:00.954Z,95180.63
2023-04-15T06:57:13.432Z,95193.06
2023-04-15T07:01:26.087Z,95182.00
2023-04-15T07:05:48.613Z,95190.41
2023-04-15T07:10:02.821Z,95186.72
2023-04-15T07:14:15.225Z,95186.25
2023-04-15T07:18:27.661Z,95191.50
2023-04-15T07:22:40.271Z,95193.03
2023-04-15T07:26:52.977Z,95204.00
2023-04-15T07:31:05.477Z,95205.25
2023-04-15T07:35:28.433Z,95201.44
2023-04-15T07:39:40.859Z,95209.16
2023-04-15T07:43:53.336Z,95202.19
2023-04-15T07:48:07.490Z,95203.09
2023-04-15T07:52:29.198Z,95195.38
2023-04-15T07:56:42.128Z,95197.59
2023-04-15T08:00:56.016Z,95198.25
2023-04-15T08:05:14.804Z,95196.56
2023-04-15T08:09:28.033Z,95176.25
2023-04-15T08:13:40.494Z,95183.41
2023-04-15T08:17:53.137Z,95184.94
2023-04-15T08:22:06.111Z,95186.59
2023-04-15T08:26:38.463Z,95180.81
2023-04-15T08:30:51.381Z,95190.13
2023-04-15T08:35:04.018Z,95183.63
2023-04-15T08:39:16.788Z,95196.59
2023-04-15T08:43:35.348Z,95191.31
2023-04-15T08:47:53.997Z,95200.06
2023-04-15T08:52:07.109Z,95191.13
2023-04-15T08:56:21.061Z,95202.06
2023-04-15T09:00:34.815Z,95210.84
2023-04-15T09:04:47.312Z,95201.25
2023-04-15T09:08:59.953Z,95209.75
2023-04-15T09:13:13.006Z,95208.91
2023-04-15T09:17:27.360Z,95213.66
2023-04-15T09:21:40.439Z,95222.09
2023-04-15T09:25:52.993Z,95219.44
2023-04-15T09:30:10.057Z,95210.56
2023-04-15T09:34:23.394Z,95214.50
2023-04-15T09:38:35.835Z,95209.41
2023-04-15T09:42:57.933Z,95214.41
2023-04-15T09:47:10.453Z,95226.22
2023-04-15T09:51:36.364Z,95218.50
2023-04-15T09:56:02.290Z,95225.94
2023-04-15T10:00:15.643Z,95219.72
2023-04-15T10:04:29.300Z,95222.72
2023-04-15T10:08:42.685Z,95231.59
2023-04-15T10:12:56.519Z,95219.53
2023-04-15T10:17:12.434Z,95223.31
2023-04-15T10:21:25.508Z,95227.34
2023-04-15T10:25:38.568Z,95250.50
2023-04-15T10:29:52.464Z,95232.44
2023-04-15T10:34:07.335Z,95244.16
2023-04-15T10:38:36.686Z,95236.97
2023-04-15T10:42:49.164Z,95231.13
2023-04-15T10:47:19.881Z,95243.66
2023-04-15T10:51:33.392Z,95250.09
2023-04-15T10:55:45.821Z,95238.50
2023-04-15T11:00:12.066Z,95244.22
2023-04-15T11:04:59.532Z,95236.44
2023-04-15T11:09:33.346Z,95237.66
2023-04-15T11:13:56.132Z,95239.53
2023-04-15T11:18:22.857Z,95243.59
2023-04-15T11:22:35.365Z,95248.50
2023-04-15T11:26:47.927Z,95247.19
2023-04-15T11:31:09.281Z,95252.56
2023-04-15T11:35:26.520Z,95258.91
2023-04-15T11:39:39.157Z,95235.75
2023-04-15T11:43:52.907Z,95248.03
2023-04-15T11:48:14.386Z,95244.91
2023-04-15T11:52:35.526Z,95252.41
2023-04-15T11:56:55.361Z,95265.97
2023-04-15T12:01:08.258Z,95270.00
2023-04-15T12:05:20.807Z,95274.47
2023-04-15T12:09:40.624Z,95269.16
2023-04-15T12:14:09.863Z,95271.34
2023-04-15T12:18:22.448Z,95267.25
2023-04-15T12:22:38.967Z,95277.31
2023-04-15T12:27:06.921Z,95274.59
2023-04-15T12:31:20.757Z,95282.25
2023-04-15T12:35:33.840Z,95289.03
2023-04-15T12:39:51.841Z,95280.44
2023-04-15T12:44:04.833Z,95298.03
2023-04-15T12:48:17.444Z,95311.19
2023-04-15T12:52:29.948Z,95323.16
2023-04-15T12:56:42.491Z,95334.91
2023-04-15T13:00:54.932Z,95327.22
2023-04-15T13:05:08.088Z,95338.06
2023-04-15T13:09:30.631Z,95341.91
2023-04-15T13:13:43.232Z,95337.09
2023-04-15T13:18:07.756Z,95346.03
2023-04-15T13:22:28.404Z,95347.94
2023-04-15T13:26:40.810Z,95354.59
2023-04-15T13:30:53.353Z,95350.88
2023-04-15T13:35:06.646Z,95356.81
2023-04-15T13:39:19.092Z,95363.69
2023-04-15T13:43:32.561Z,95367.88
2023-04-15T13:47:45.048Z,95362.38
2023-04-15T13:52:07.686Z,95365.59
2023-04-15T13:56:20.174Z,95381.56
2023-04-15T14:00:32.765Z,95360.09
2023-04-15T14:04:45.234Z,95378.72
2023-04-15T14:08:57.816Z,95375.28
2023-04-15T14:13:10.325Z,95384.22
2023-04-15T14:17:22.980Z,95393.38
2023-04-15T14:21:35.556Z,95400.59
2023-04-15T14:25:58.454Z,95409.03
2023-04-15T14:30:11.539Z,95422.16
2023-04-15T14:34:26.121Z,95418.38
2023-04-15T14:38:41.862Z,95440.78
2023-04-15T14:42:54.335Z,95436.06
2023-04-15T14:47:06.887Z,95439.75
2023-04-15T14:51:19.577Z,95460.06
2023-04-15T14:55:42.134Z,95471.72
2023-04-15T14:59:57.398Z,95471.78
2023-04-15T15:04:20.264Z,95475.63
2023-04-15T15:08:32.837Z,95490.63
2023-04-15T15:12:45.308Z,95499.47
2023-04-15T15:16:57.752Z,95518.81
2023-04-15T15:21:11.964Z,95516.91
2023-04-15T15:25:24.462Z,95516.78
2023-04-15T15:29:38.871Z,95511.13
2023-04-15T15:33:52.464Z,95526.84
2023-04-15T15:38:05.021Z,95518.00
2023-04-15T15:42:19.874Z,95530.97
2023-04-15T15:46:39.017Z,95530.34
2023-04-15T15:50:52.980Z,95533.69
2023-04-15T15:55:06.009Z,95543.75
2023-04-15T15:59:18.531Z,95550.94
2023-04-15T16:03:31.447Z,95548.88
2023-04-15T16:07:43.980Z,95559.25
2023-04-15T16:12:06.680Z,95563.03
2023-04-15T16:16:19.155Z,95560.47
2023-04-15T16:20:31.855Z,95559.88
2023-04-15T16:24:44.304Z,95569.50
2023-04-15T16:28:56.993Z,95579.88
2023-04-15T16:33:11.093Z,95578.81
2023-04-15T16:37:23.605Z,95579.88
2023-04-15T16:41:36.395Z,95585.81
2023-04-15T16:45:51.805Z,95598.50
2023-04-15T16:50:04.881Z,95607.03
2023-04-15T16:54:17.478Z,95620.78
2023-04-15T16:58:30.037Z,95620.63
2023-04-15T17:02:42.797Z,95634.66
2023-04-15T17:06:55.460Z,95624.50
2023-04-15T17:11:08.097Z,95630.31
2023-04-15T17:15:21.392Z,95633.41
2023-04-15T17:19:34.454Z,95639.47
2023-04-15T17:23:46.951Z,95647.69
2023-04-15T17:27:59.389Z,95657.34
2023-04-15T17:32:12.203Z,95665.84
2023-04-15T17:36:24.695Z,95672.00
2023-04-15T17:40:37.194Z,95682.06
2023-04-15T17:44:50.046Z,95689.97
2023-04-15T17:49:02.883Z,95689.66
2023-04-15T17:53:15.906Z,95695.81
2023-04-15T17:57:28.395Z,95694.28
2023-04-15T18:01:41.138Z,95698.84
2023-04-15T18:05:53.657Z,95701.50
2023-04-15T18:10:08.137Z,95714.94
2023-04-15T18:14:33.609Z,95708.66
2023-04-15T18:18:46.960Z,95725.66
2023-04-15T18:22:59.405Z,95728.94
2023-04-15T18:27:19.003Z,95751.28
2023-04-15T18:31:33.941Z,95740.00
2023-04-15T18:35:48.113Z,95764.66
2023-04-15T18:40:05.966Z,95760.34
2023-04-15T18:44:18.410Z,95771.94
2023-04-15T18:48:31.376Z,95773.03
2023-04-15T18:52:44.005Z,95786.75
2023-04-15T18:56:57.538Z,95782.72
2023-04-15T19:01:11.854Z,95790.38
2023-04-15T19:05:25.423Z,95793.25
2023-04-15T19:09:37.841Z,95804.34
2023-04-15T19:13:55.223Z,95803.50
2023-04-15T19:18:17.674Z,95816.19
2023-04-15T19:22:31.285Z,95824.84
2023-04-15T19:26:47.671Z,95821.97
2023-04-15T19:31:00.240Z,95827.72
2023-04-15T19:35:12.728Z,95833.81
2023-04-15T19:39:25.161Z,95829.03
2023-04-15T19:43:37.878Z,95837.16
2023-04-15T19:47:50.459Z,95840.53
2023-04-15T19:52:03.023Z,95841.97
2023-04-15T19:56:17.744Z,95844.91
2023-04-15T20:00:30.392Z,95851.69
2023-04-15T20:04:46.875Z,95859.19
2023-04-15T20:08:59.698Z,95863.91
2023-04-15T20:13:12.198Z,95863.91
2023-04-15T20:17:24.697Z,95863.47
2023-04-15T20:21:47.338Z,95853.16
2023-04-15T20:25:59.870Z,95870.81
2023-04-15T20:30:12.584Z,95882.59
2023-04-15T20:34:25.411Z,95876.66
2023-04-15T20:38:37.871Z,95882.28
2023-04-15T20:42:50.382Z,95895.53
2023-04-15T20:47:12.885Z,95889.81
2023-04-15T20:51:25.491Z,95902.53
2023-04-15T20:55:37.939Z,95902.53
2023-04-15T20:59:50.508Z,95901.97
2023-04-15T21:04:03.046Z,95905.72
2023-04-15T21:08:15.538Z,95892.78
2023-04-15T21:12:28.142Z,95899.38
2023-04-15T21:16:50.717Z,95915.59
2023-04-15T21:21:03.850Z,95915.78
2023-04-15T21:25:17.778Z,95928.22
2023-04-15T21:29:30.627Z,95919.84
2023-04-15T21:33:43.100Z,95938.31
2023-04-15T21:37:55.622Z,95937.34
2023-04-15T21:42:08.146Z,95936.13
2023-04-15T21:46:24.369Z,95938.22
2023-04-15T21:50:38.268Z,95941.59
2023-04-15T21:55:00.733Z,95946.41
2023-04-15T21:59:13.234Z,95962.00
2023-04-15T22:03:36.582Z,95955.09
2023-04-15T22:07:49.163Z,95968.56
2023-04-15T22:12:01.891Z,95962.00
2023-04-15T22:16:14.361Z,95961.56
2023-04-15T22:20:28.776Z,95964.75
2023-04-15T22:24:41.233Z,95964.44
2023-04-15T22:28:53.719Z,95990.72
2023-04-15T22:33:07.995Z,95987.22
2023-04-15T22:37:20.548Z,95989.06
2023-04-15T22:41:32.977Z,95997.50
2023-04-15T22:45:51.402Z,95991.59
2023-04-15T22:50:04.143Z,96003.31
2023-04-15T22:54:16.646Z,95995.19
2023-04-15T22:58:29.177Z,95993.22
2023-04-15T23:02:41.985Z,96004.16
2023-04-15T23:06:55.247Z,96001.75
2023-04-15T23:11:08.749Z,96008.88
2023-04-15T23:15:21.307Z,96007.16
2023-04-15T23:19:33.818Z,96011.22
2023-04-15T23:23:46.303Z,96012.31
2023-04-15T23:27:59.301Z,96016.47
2023-04-15T23:32:21.911Z,96027.00
2023-04-15T23:36:34.419Z,96016.66
2023-04-15T23:40:46.980Z,96021.84
2023-04-15T23:44:59.526Z,96028.50
2023-04-15T23:49:12.127Z,96027.84
2023-04-15T23:53:24.625Z,96028.06
2023-04-15T23:57:37.061Z,96031.91
